createdAt,value
2022-11-07T00:00:49.765Z,71.80
2022-11-07T00:03:23.935Z,71.80
2022-11-07T00:05:51.082Z,71.80
2022-11-07T00:08:24.942Z,71.80
2022-11-07T00:10:54.917Z,71.80
2022-11-07T00:13:28.992Z,71.70
2022-11-07T00:16:05.424Z,71.80
2022-11-07T00:18:38.995Z,71.80
2022-11-07T00:21:15.005Z,71.80
2022-11-07T00:23:50.015Z,71.90
2022-11-07T00:26:17.214Z,71.70
2022-11-07T00:28:50.939Z,71.80
2022-11-07T00:31:18.543Z,71.80
2022-11-07T00:33:52.959Z,72.00
2022-11-07T00:36:28.510Z,72.10
2022-11-07T00:39:02.964Z,72.00
2022-11-07T00:41:30.188Z,72.10
2022-11-07T00:44:03.925Z,72.20
2022-11-07T00:46:37.939Z,72.30
2022-11-07T00:49:11.969Z,72.20
2022-11-07T00:51:45.959Z,72.30
2022-11-07T00:54:20.024Z,72.20
2022-11-07T00:56:47.162Z,72.30
2022-11-07T00:59:21.029Z,72.40
2022-11-07T01:01:48.180Z,72.50
2022-11-07T01:04:40.984Z,72.50
2022-11-07T01:07:08.163Z,72.40
2022-11-07T01:09:41.972Z,72.30
2022-11-07T01:12:09.029Z,72.20
2022-11-07T01:14:42.964Z,72.30
2022-11-07T01:17:17.119Z,72.40
2022-11-07T01:19:50.965Z,72.40
2022-11-07T01:22:18.033Z,72.40
2022-11-07T01:24:52.023Z,72.50
2022-11-07T01:27:19.071Z,72.60
2022-11-07T01:29:46.119Z,72.80
2022-11-07T01:32:19.996Z,73.00
2022-11-07T01:34:53.974Z,73.20
2022-11-07T01:37:27.975Z,73.20
2022-11-07T01:40:01.959Z,73.10
2022-11-07T01:42:36.012Z,73.10
2022-11-07T01:45:03.197Z,73.10
2022-11-07T01:47:44.008Z,73.10
2022-11-07T01:50:11.394Z,73.30
2022-11-07T01:52:48.994Z,73.40
2022-11-07T01:55:34.674Z,73.60
2022-11-07T01:58:13.079Z,73.60
2022-11-07T02:00:40.562Z,73.70
2022-11-07T02:03:20.979Z,73.90
2022-11-07T02:05:59.530Z,73.90
2022-11-07T02:08:35.070Z,74.00
2022-11-07T02:11:04.004Z,74.00
2022-11-07T02:13:33.161Z,74.10
2022-11-07T02:16:09.904Z,74.30
2022-11-07T02:18:52.035Z,74.30
2022-11-07T02:21:21.824Z,74.60
2022-11-07T02:24:15.987Z,74.80
2022-11-07T02:26:43.949Z,75.00
2022-11-07T02:29:22.294Z,75.10
2022-11-07T02:31:59.794Z,75.10
2022-11-07T02:34:34.013Z,75.30
2022-11-07T02:37:10.003Z,75.30
2022-11-07T02:39:37.764Z,75.20
2022-11-07T02:42:12.984Z,75.40
2022-11-07T02:44:40.158Z,75.60
2022-11-07T02:47:13.969Z,75.70
2022-11-07T02:49:41.358Z,75.70
2022-11-07T02:52:15.989Z,75.90
2022-11-07T02:54:43.069Z,76.00
2022-11-07T02:57:16.974Z,76.10
2022-11-07T02:59:44.036Z,76.00
2022-11-07T03:02:18.168Z,75.80
2022-11-07T03:04:49.137Z,75.90
2022-11-07T03:07:22.989Z,76.00
2022-11-07T03:09:50.165Z,76.30
2022-11-07T03:12:23.975Z,76.40
2022-11-07T03:14:57.994Z,76.40
2022-11-07T03:17:32.119Z,76.50
2022-11-07T03:20:06.019Z,76.40
2022-11-07T03:22:33.156Z,76.40
2022-11-07T03:25:06.986Z,76.50
2022-11-07T03:27:40.989Z,76.60
2022-11-07T03:30:15.024Z,76.50
2022-11-07T03:32:48.993Z,76.50
2022-11-07T03:35:16.238Z,76.50
2022-11-07T03:37:47.111Z,76.50
2022-11-07T03:40:22.053Z,76.40
2022-11-07T03:42:49.334Z,76.50
2022-11-07T03:45:23.988Z,76.30
2022-11-07T03:47:51.137Z,76.60
2022-11-07T03:50:27.069Z,76.80
2022-11-07T03:53:00.978Z,77.00
2022-11-07T03:55:28.011Z,77.00
2022-11-07T03:58:02.016Z,77.00
2022-11-07T04:00:29.149Z,76.90
2022-11-07T04:03:03.034Z,77.00
2022-11-07T04:05:30.695Z,77.10
2022-11-07T04:08:05.065Z,76.90
2022-11-07T04:10:32.222Z,76.90
2022-11-07T04:13:24.991Z,77.10
2022-11-07T04:16:23.988Z,77.10
2022-11-07T04:18:58.208Z,77.10
2022-11-07T04:21:32.059Z,77.20
2022-11-07T04:23:59.359Z,77.00
2022-11-07T04:27:02.059Z,77.10
2022-11-07T04:29:29.137Z,77.00
2022-11-07T04:31:56.258Z,77.30
2022-11-07T04:34:30.092Z,77.20
2022-11-07T04:36:57.317Z,77.20
2022-11-07T04:39:31.039Z,77.30
2022-11-07T04:42:05.060Z,77.20
2022-11-07T04:44:39.047Z,77.20
2022-11-07T04:47:06.966Z,77.10
2022-11-07T04:49:41.008Z,77.10
2022-11-07T04:52:09.861Z,77.00
2022-11-07T04:54:43.078Z,76.90
2022-11-07T04:57:17.030Z,77.20
2022-11-07T04:59:44.151Z,77.20
2022-11-07T05:02:21.131Z,77.10
2022-11-07T05:04:55.017Z,77.20
2022-11-07T05:07:22.216Z,77.40
2022-11-07T05:09:56.088Z,77.40
2022-11-07T05:12:23.268Z,77.40
2022-11-07T05:15:10.029Z,77.30
2022-11-07T05:17:44.039Z,77.30
2022-11-07T05:20:40.023Z,77.50
2022-11-07T05:23:22.022Z,77.70
2022-11-07T05:25:51.918Z,77.70
2022-11-07T05:28:36.856Z,77.90
2022-11-07T05:31:12.027Z,78.10
2022-11-07T05:33:39.262Z,78.00
2022-11-07T05:36:23.038Z,78.00
2022-11-07T05:38:52.944Z,78.10
2022-11-07T05:41:28.019Z,78.20
2022-11-07T05:44:01.018Z,78.10
2022-11-07T05:46:35.077Z,78.10
2022-11-07T05:49:02.309Z,78.20
2022-11-07T05:51:29.427Z,78.30
2022-11-07T05:54:03.108Z,78.30
2022-11-07T05:56:37.119Z,78.30
2022-11-07T05:59:07.207Z,78.30
2022-11-07T06:01:41.146Z,78.30
2022-11-07T06:04:08.538Z,78.20
2022-11-07T06:06:42.130Z,78.30
2022-11-07T06:09:09.280Z,78.40
2022-11-07T06:11:43.072Z,78.40
2022-11-07T06:14:10.260Z,78.40
2022-11-07T06:16:50.061Z,78.40
2022-11-07T06:19:17.226Z,78.30
2022-11-07T06:21:51.019Z,78.30
2022-11-07T06:24:18.102Z,78.40
2022-11-07T06:26:52.003Z,78.50
2022-11-07T06:29:19.225Z,78.40
2022-11-07T06:31:53.041Z,78.40
2022-11-07T06:34:20.174Z,78.60
2022-11-07T06:37:01.619Z,78.60
2022-11-07T06:39:29.824Z,78.80
2022-11-07T06:42:03.004Z,78.90
2022-11-07T06:44:30.069Z,78.70
2022-11-07T06:47:04.029Z,78.80
2022-11-07T06:49:38.014Z,78.80
2022-11-07T06:52:12.033Z,79.10
2022-11-07T06:54:39.204Z,79.10
2022-11-07T06:57:13.053Z,79.10
2022-11-07T06:59:40.148Z,79.00
2022-11-07T07:02:30.796Z,78.90
2022-11-07T07:05:04.320Z,78.80
2022-11-07T07:07:38.046Z,78.70
2022-11-07T07:10:05.830Z,78.80
2022-11-07T07:12:39.061Z,78.90
2022-11-07T07:15:14.214Z,79.00
2022-11-07T07:17:54.080Z,78.90
2022-11-07T07:20:21.232Z,78.90
2022-11-07T07:23:00.163Z,79.00
2022-11-07T07:25:37.070Z,79.00
2022-11-07T07:28:11.035Z,79.00
2022-11-07T07:30:51.349Z,78.80
2022-11-07T07:33:19.425Z,78.90
2022-11-07T07:35:53.076Z,79.00
2022-11-07T07:38:20.120Z,79.10
2022-11-07T07:40:47.274Z,79.10
2022-11-07T07:43:21.041Z,79.10
2022-11-07T07:45:48.061Z,79.10
2022-11-07T07:48:22.087Z,79.00
2022-11-07T07:50:59.104Z,79.10
2022-11-07T07:53:26.252Z,79.20
2022-11-07T07:56:07.078Z,79.10
2022-11-07T07:58:34.550Z,79.10
2022-11-07T08:01:02.283Z,79.20
2022-11-07T08:03:59.618Z,79.10
2022-11-07T08:06:23.307Z,79.20
2022-11-07T08:08:57.120Z,79.30
2022-11-07T08:11:24.328Z,79.30
2022-11-07T08:14:01.344Z,79.20
2022-11-07T08:16:35.099Z,79.10
2022-11-07T08:19:17.047Z,79.20
2022-11-07T08:21:44.721Z,79.60
2022-11-07T08:24:18.113Z,79.50
2022-11-07T08:26:52.063Z,79.00
2022-11-07T08:29:26.048Z,78.80
2022-11-07T08:31:53.197Z,78.50
2022-11-07T08:34:27.080Z,78.70
2022-11-07T08:36:54.365Z,78.50
2022-11-07T08:39:28.057Z,78.60
2022-11-07T08:41:55.227Z,78.70
2022-11-07T08:44:29.108Z,78.70
2022-11-07T08:46:56.218Z,78.90
2022-11-07T08:49:30.167Z,79.00
2022-11-07T08:52:04.064Z,79.90
2022-11-07T08:54:31.308Z,82.70
2022-11-07T08:57:05.062Z,82.60
2022-11-07T08:59:32.165Z,79.40
2022-11-07T09:05:00.092Z,74.70
2022-11-07T09:07:34.076Z,74.40
2022-11-07T09:10:08.056Z,75.00
2022-11-07T09:12:35.138Z,75.70
2022-11-07T09:15:09.044Z,76.40
2022-11-07T09:17:50.041Z,74.00
2022-11-07T09:20:31.063Z,71.50
2022-11-07T09:22:59.635Z,70.20
2022-11-07T09:25:34.038Z,71.10
2022-11-07T09:28:04.618Z,74.10
2022-11-07T09:30:39.105Z,74.70
2022-11-07T09:33:06.225Z,73.50
2022-11-07T09:35:40.100Z,72.00
2022-11-07T09:38:07.234Z,70.20
2022-11-07T09:41:07.204Z,68.50
2022-11-07T09:44:08.465Z,67.00
2022-11-07T09:46:52.109Z,65.50
2022-11-07T09:49:30.956Z,64.50
2022-11-07T09:52:24.069Z,63.20
2022-11-07T09:55:06.122Z,62.20
2022-11-07T09:57:43.060Z,61.70
2022-11-07T10:00:23.150Z,61.40
2022-11-07T10:02:55.270Z,61.40
2022-11-07T10:06:03.131Z,61.20
2022-11-07T10:08:44.086Z,61.20
2022-11-07T10:11:43.050Z,61.50
2022-11-07T10:14:33.561Z,61.60
2022-11-07T10:17:32.222Z,61.70
2022-11-07T10:20:31.083Z,61.80
2022-11-07T10:23:28.568Z,61.80
2022-11-07T10:26:10.082Z,61.80
2022-11-07T10:28:53.601Z,61.90
2022-11-07T10:31:28.231Z,61.80
2022-11-07T10:34:12.487Z,61.70
2022-11-07T10:36:47.066Z,62.00
2022-11-07T10:39:19.237Z,61.90
2022-11-07T10:42:08.088Z,61.80
2022-11-07T10:44:36.896Z,61.80
2022-11-07T10:47:25.101Z,61.80
2022-11-07T10:50:06.041Z,61.90
2022-11-07T10:52:40.102Z,61.90
2022-11-07T10:55:24.191Z,61.80
2022-11-07T10:58:14.334Z,61.70
2022-11-07T11:00:44.776Z,61.90
2022-11-07T11:03:43.912Z,61.90
2022-11-07T11:06:25.183Z,62.10
2022-11-07T11:08:53.596Z,62.20
2022-11-07T11:11:41.180Z,62.10
2022-11-07T11:14:16.851Z,62.10
2022-11-07T11:16:53.511Z,62.10
2022-11-07T11:19:38.541Z,62.20
2022-11-07T11:22:23.180Z,62.50
2022-11-07T11:25:24.425Z,62.50
2022-11-07T11:28:15.226Z,62.60
2022-11-07T11:30:43.250Z,63.10
2022-11-07T11:33:27.087Z,63.50
2022-11-07T11:36:04.150Z,64.30
2022-11-07T11:38:47.124Z,64.80
2022-11-07T11:41:30.122Z,65.20
2022-11-07T11:44:21.343Z,65.40
2022-11-07T11:47:06.136Z,65.60
2022-11-07T11:50:10.447Z,65.70
2022-11-07T11:52:44.153Z,65.90
2022-11-07T11:55:24.183Z,66.00
2022-11-07T11:58:20.764Z,66.10
2022-11-07T12:01:21.104Z,66.40
2022-11-07T12:04:20.098Z,66.50
2022-11-07T12:06:54.063Z,66.40
2022-11-07T12:10:10.139Z,66.20
2022-11-07T12:12:57.359Z,66.20
2022-11-07T12:15:48.175Z,66.00
2022-11-07T12:18:54.125Z,66.10
2022-11-07T12:21:48.631Z,66.60
2022-11-07T12:24:27.240Z,67.00
2022-11-07T12:27:00.150Z,67.20
2022-11-07T12:29:57.096Z,67.20
2022-11-07T12:32:30.258Z,67.20
2022-11-07T12:35:38.181Z,67.10
2022-11-07T12:38:42.311Z,67.20
2022-11-07T12:41:24.085Z,67.20
2022-11-07T12:44:12.882Z,67.30
2022-11-07T12:46:56.112Z,67.30
2022-11-07T12:50:00.142Z,67.20
2022-11-07T12:52:52.022Z,67.20
2022-11-07T12:55:35.091Z,67.20
2022-11-07T12:58:11.132Z,67.20
2022-11-07T13:00:45.061Z,67.30
2022-11-07T13:03:42.129Z,67.40
2022-11-07T13:06:29.104Z,67.30
2022-11-07T13:09:05.286Z,67.20
2022-11-07T13:11:52.142Z,67.20
2022-11-07T13:14:46.101Z,67.20
2022-11-07T13:17:28.237Z,67.20
2022-11-07T13:20:13.116Z,67.20
2022-11-07T13:22:48.113Z,67.40
2022-11-07T13:25:16.780Z,67.40
2022-11-07T13:27:44.217Z,67.50
2022-11-07T13:30:20.830Z,67.80
2022-11-07T13:32:50.315Z,67.90
2022-11-07T13:35:30.403Z,67.70
2022-11-07T13:37:58.785Z,67.60
2022-11-07T13:40:27.800Z,67.50
2022-11-07T13:43:07.148Z,67.50
2022-11-07T13:45:43.856Z,67.70
2022-11-07T13:48:25.126Z,67.70
2022-11-07T13:51:25.139Z,67.90
2022-11-07T13:54:20.377Z,68.00
2022-11-07T13:57:09.081Z,68.20
2022-11-07T14:00:02.794Z,68.30
2022-11-07T14:02:39.298Z,68.50
2022-11-07T14:05:17.518Z,68.70
2022-11-07T14:08:09.105Z,68.90
2022-11-07T14:10:55.235Z,69.10
2022-11-07T14:13:41.897Z,69.30
2022-11-07T14:16:32.528Z,69.40
2022-11-07T14:19:19.155Z,69.50
2022-11-07T14:21:47.702Z,69.60
2022-11-07T14:24:34.229Z,69.70
2022-11-07T14:27:07.705Z,69.80
2022-11-07T14:29:42.130Z,69.80
2022-11-07T14:32:19.058Z,69.90
2022-11-07T14:34:55.115Z,69.90
2022-11-07T14:37:25.571Z,69.90
2022-11-07T14:40:03.256Z,70.00
2022-11-07T14:42:30.404Z,70.00
2022-11-07T14:44:58.445Z,70.00
2022-11-07T14:47:52.195Z,70.10
2022-11-07T14:50:28.541Z,70.10
2022-11-07T14:53:11.112Z,70.30
2022-11-07T14:55:44.696Z,70.30
2022-11-07T14:58:19.401Z,70.30
2022-11-07T15:01:01.232Z,70.30
2022-11-07T15:03:35.950Z,70.40
2022-11-07T15:06:10.116Z,70.50
2022-11-07T15:08:44.141Z,70.50
2022-11-07T15:11:14.330Z,70.70
2022-11-07T15:13:49.168Z,70.90
2022-11-07T15:16:28.964Z,71.10
2022-11-07T15:19:08.141Z,71.30
2022-11-07T15:21:51.090Z,71.60
2022-11-07T15:24:52.186Z,71.80
2022-11-07T15:27:29.640Z,72.10
2022-11-07T15:30:06.140Z,72.30
2022-11-07T15:32:42.006Z,72.50
2022-11-07T15:38:33.174Z,72.80
2022-11-07T15:41:00.396Z,73.00
2022-11-07T15:43:35.251Z,73.20
2022-11-07T15:46:05.886Z,73.40
2022-11-07T15:48:41.534Z,73.60
2022-11-07T15:51:09.711Z,73.60
2022-11-07T15:53:43.121Z,73.80
2022-11-07T15:56:17.493Z,73.80
2022-11-07T15:58:51.144Z,73.90
2022-11-07T16:01:25.231Z,74.10
2022-11-07T16:03:59.240Z,74.20
2022-11-07T16:06:41.927Z,74.30
2022-11-07T16:09:18.405Z,74.50
2022-11-07T16:11:53.147Z,74.70
2022-11-07T16:14:43.048Z,74.80
2022-11-07T16:17:26.151Z,75.00
2022-11-07T16:19:56.234Z,74.90
2022-11-07T16:22:32.127Z,74.90
2022-11-07T16:24:59.240Z,74.70
2022-11-07T16:27:34.185Z,74.80
2022-11-07T16:30:01.256Z,74.90
2022-11-07T16:32:28.362Z,74.80
2022-11-07T16:35:02.123Z,75.00
2022-11-07T16:37:29.252Z,74.80
2022-11-07T16:40:03.176Z,74.80
2022-11-07T16:42:37.167Z,75.00
2022-11-07T16:45:04.960Z,75.10
2022-11-07T16:47:39.283Z,75.20
2022-11-07T16:50:07.399Z,75.40
2022-11-07T16:52:41.258Z,75.30
2022-11-07T16:55:13.707Z,75.10
2022-11-07T16:57:48.191Z,75.10
2022-11-07T17:00:23.481Z,75.20
2022-11-07T17:02:58.232Z,75.60
2022-11-07T17:05:25.647Z,75.70
2022-11-07T17:08:01.137Z,75.90
2022-11-07T17:10:35.163Z,75.80
2022-11-07T17:13:09.259Z,75.50
2022-11-07T17:15:43.402Z,75.40
2022-11-07T17:18:35.321Z,75.40
2022-11-07T17:21:27.230Z,75.80
2022-11-07T17:23:56.685Z,75.60
2022-11-07T17:26:35.346Z,75.60
2022-11-07T17:29:03.390Z,75.50
2022-11-07T17:31:37.296Z,75.60
2022-11-07T17:34:11.372Z,75.60
2022-11-07T17:36:46.265Z,75.80
2022-11-07T17:39:23.285Z,75.70
2022-11-07T17:41:58.331Z,75.80
2022-11-07T17:44:25.345Z,75.90
2022-11-07T17:46:59.305Z,75.80
2022-11-07T17:49:33.245Z,75.70
2022-11-07T17:52:00.586Z,75.40
2022-11-07T17:54:34.242Z,75.40
2022-11-07T17:57:10.265Z,75.40
2022-11-07T17:59:40.933Z,75.60
2022-11-07T18:02:27.399Z,75.70
2022-11-07T18:04:55.028Z,75.80
2022-11-07T18:07:29.264Z,75.70
2022-11-07T18:10:04.285Z,75.60
2022-11-07T18:12:31.436Z,75.60
2022-11-07T18:15:10.707Z,75.50
2022-11-07T18:17:46.350Z,75.80
2022-11-07T18:20:21.193Z,75.80
2022-11-07T18:22:48.593Z,75.80
2022-11-07T18:25:23.294Z,75.80
2022-11-07T18:27:50.485Z,75.80
2022-11-07T18:30:25.120Z,76.00
2022-11-07T18:32:59.290Z,76.30
2022-11-07T18:35:26.650Z,76.30
2022-11-07T18:37:53.869Z,76.30
2022-11-07T18:40:28.290Z,76.30
2022-11-07T18:42:55.433Z,76.40
2022-11-07T18:45:30.290Z,76.60
2022-11-07T18:47:57.790Z,76.50
2022-11-07T18:50:31.255Z,76.40
2022-11-07T18:52:58.450Z,76.40
2022-11-07T18:55:32.310Z,76.10
2022-11-07T18:57:59.591Z,76.00
2022-11-07T19:00:34.280Z,75.70
2022-11-07T19:03:08.215Z,75.70
2022-11-07T19:05:43.257Z,75.70
2022-11-07T19:08:10.330Z,75.60
2022-11-07T19:10:44.433Z,75.60
2022-11-07T19:13:18.681Z,75.40
2022-11-07T19:15:52.351Z,75.30
2022-11-07T19:18:27.550Z,75.50
2022-11-07T19:21:01.477Z,75.50
2022-11-07T19:23:28.789Z,75.60
2022-11-07T19:26:02.390Z,75.40
2022-11-07T19:28:29.791Z,75.50
2022-11-07T19:31:03.449Z,76.00
2022-11-07T19:33:31.322Z,76.30
2022-11-07T19:36:12.630Z,76.20
2022-11-07T19:38:39.830Z,75.70
2022-11-07T19:41:15.433Z,75.70
2022-11-07T19:43:48.495Z,75.60
2022-11-07T19:46:27.431Z,75.30
2022-11-07T19:48:56.510Z,75.10
2022-11-07T19:51:30.319Z,75.40
2022-11-07T19:53:59.856Z,75.20
2022-11-07T19:56:36.470Z,75.10
2022-11-07T19:59:03.681Z,75.10
2022-11-07T20:01:39.702Z,75.30
2022-11-07T20:04:09.231Z,75.10
2022-11-07T20:06:45.411Z,75.00
2022-11-07T20:09:14.472Z,75.20
2022-11-07T20:11:49.446Z,75.50
2022-11-07T20:14:16.961Z,75.60
2022-11-07T20:16:52.396Z,75.80
2022-11-07T20:19:36.354Z,75.90
2022-11-07T20:22:04.494Z,75.50
2022-11-07T20:24:39.479Z,75.70
2022-11-07T20:27:07.196Z,75.90
2022-11-07T20:29:41.475Z,75.40
2022-11-07T20:32:16.376Z,75.10
2022-11-07T20:34:44.247Z,75.20
2022-11-07T20:37:18.436Z,75.20
2022-11-07T20:39:47.316Z,75.60
2022-11-07T20:42:21.396Z,75.40
2022-11-07T20:44:51.572Z,75.10
2022-11-07T20:47:25.364Z,74.90
2022-11-07T20:49:59.381Z,75.00
2022-11-07T20:52:33.370Z,75.00
2022-11-07T20:55:00.733Z,75.00
2022-11-07T20:57:36.354Z,74.80
2022-11-07T21:00:05.198Z,74.70
2022-11-07T21:02:32.727Z,74.70
2022-11-07T21:05:22.708Z,74.50
2022-11-07T21:07:57.421Z,74.50
2022-11-07T21:10:32.456Z,74.40
2022-11-07T21:13:06.476Z,74.20
2022-11-07T21:15:40.360Z,74.10
2022-11-07T21:18:15.416Z,74.00
2022-11-07T21:20:49.314Z,74.00
2022-11-07T21:23:17.206Z,74.20
2022-11-07T21:25:54.283Z,74.30
2022-11-07T21:28:29.320Z,74.10
2022-11-07T21:31:01.386Z,73.90
2022-11-07T21:33:35.301Z,73.90
2022-11-07T21:36:09.245Z,73.80
2022-11-07T21:38:43.287Z,73.90
2022-11-07T21:41:11.240Z,74.40
2022-11-07T21:43:38.620Z,74.20
2022-11-07T21:46:17.234Z,73.90
2022-11-07T21:48:46.049Z,73.70
2022-11-07T21:51:32.225Z,73.80
2022-11-07T21:54:00.139Z,73.80
2022-11-07T21:56:39.249Z,73.80
2022-11-07T21:59:11.830Z,74.20
2022-11-07T22:01:46.396Z,74.30
2022-11-07T22:04:13.904Z,73.90
2022-11-07T22:06:50.219Z,73.80
2022-11-07T22:09:20.319Z,73.50
2022-11-07T22:11:48.419Z,73.60
2022-11-07T22:14:27.202Z,73.50
2022-11-07T22:17:03.025Z,73.20
2022-11-07T22:19:43.255Z,73.40
2022-11-07T22:22:10.400Z,73.40
2022-11-07T22:24:44.227Z,73.30
2022-11-07T22:27:11.367Z,73.40
2022-11-07T22:29:45.270Z,73.40
2022-11-07T22:32:12.428Z,73.30
2022-11-07T22:34:46.320Z,73.10
2022-11-07T22:37:13.495Z,73.30
2022-11-07T22:39:47.236Z,73.50
2022-11-07T22:42:15.675Z,73.30
2022-11-07T22:44:53.236Z,73.20
2022-11-07T22:47:20.311Z,73.40
2022-11-07T22:49:47.446Z,73.20
2022-11-07T22:52:21.198Z,72.90
2022-11-07T22:54:48.507Z,72.90
2022-11-07T22:57:22.201Z,72.90
2022-11-07T22:59:49.373Z,73.10
2022-11-07T23:02:23.264Z,73.10
2022-11-07T23:04:50.451Z,73.10
2022-11-07T23:07:24.298Z,73.20
2022-11-07T23:09:52.791Z,73.20
2022-11-07T23:12:29.345Z,73.40
2022-11-07T23:14:56.905Z,73.20
2022-11-07T23:17:38.246Z,73.00
2022-11-07T23:20:38.284Z,72.90
2022-11-07T23:23:12.404Z,73.00
2022-11-07T23:25:39.535Z,73.00
2022-11-07T23:28:07.627Z,73.10
2022-11-07T23:30:45.227Z,73.20
2022-11-07T23:33:12.385Z,73.00
2022-11-07T23:35:46.266Z,73.10
2022-11-07T23:38:13.481Z,73.20
2022-11-07T23:40:47.255Z,73.30
2022-11-07T23:43:14.476Z,73.40
2022-11-07T23:46:07.242Z,73.50
2022-11-07T23:48:52.946Z,73.40
2022-11-07T23:51:26.247Z,73.10
2022-11-07T23:54:11.886Z,73.10
2022-11-07T23:56:45.275Z,73.00
2022-11-07T23:59:31.865Z,73.20
